Slocan, Canada
Current Conditions -  °F | °C
As of 9:00 PM on Sunday 19 Oct 2014 (Local Time) from CYCG Reporting Station
Clear Clear  
Wind Chill: 50°   Ceiling: Unl
Heat Index: 50°   Visibility: 15mi
Dew Point: 48°   Wind: 0mph
Humidity: 94%   Direction: NA
Pressure: 29.83"   Gusts: NA
Location:  49.77°N, 117.47°W
Report Text: CYCG 200400Z 00000KT 15SM SKC 10/09 A2983 RMK LAST OBS/NEXT 201300UTC SLP106
Loading
Personal Weather Stations






























Interactive Weather Map
Tropical Storm Tracking
New forecast layout! Learn more

10-Day Weather Forecast

Advertisements
Track Severe Weather on mobile